Wangaratta Aerodrome, Australia
Current Conditions -  °F | °C
As of 10:00 PM on Thursday 18 Dec 2014 (Local Time) from YMAY Reporting Station
Clear Clear  
Wind Chill: 64°   Ceiling: Unl
Heat Index: 64°   Visibility: 6mi
Dew Point: 45°   Wind: 12mph
Humidity: 49%   Direction: 270°W
Pressure: 29.83"   Gusts: NA
Location:  36.42°S, 146.3°E
Report Text: YMAY 181100Z AUTO 27010KT 9999 // NCD 18/07 Q1010
Loading
Personal Weather Stations






























Interactive Weather Map New forecast layout! Learn more

10-Day Weather Forecast

Advertisements
Track Severe Weather on mobile